Stations météo

réclame
Mon MeteoGroup
Gielas, Suède (2110): Température de l'air & dewpoint: 10.07.2019 04:00:00 - 16.07.2019 04:00:00 (CEST)Gielas, Suède (2110): Vitesse du vent & gusts: 10.07.2019 04:00:00 - 16.07.2019 04:00:00 (CEST)Gielas, Suède (2110): Direction du vent: 10.07.2019 04:00:00 - 16.07.2019 04:00:00 (CEST)Gielas, Suède (2110): visibility: 10.07.2019 04:00:00 - 16.07.2019 04:00:00 (CEST)Gielas, Suède (2110): Quantités de précipitations: 10.07.2019 04:00:00 - 16.07.2019 04:00:00 (CEST)
Date & Time tt [°C] td [°C] ff [km/h] ff [knt] fx [km/h] fx [knt] dd vv [km] rr [mm]
16.07.2019 04:00:00 5,2 5,2 5 3 8 5 WSW 12 0,0
16.07.2019 03:00:00 3,5 3,4 4 2 6 4 W 13 0,0
16.07.2019 02:00:00 4,9 4,6 2 1 7 4 E 16 0,0
16.07.2019 01:00:00 6,1 5,8 3 2 5 3 W 16 0,0
16.07.2019 00:00:00 7,1 7,0 3 1 8 5 W 21 0,0
15.07.2019 23:00:00 7,8 7,4 4 2 7 4 W 31 0,0
15.07.2019 22:00:00 7,8 7,0 3 2 - - N 50 0,0
15.07.2019 21:00:00 8,7 7,6 8 5 16 9 N 50 0,0
15.07.2019 20:00:00 8,7 7,8 6 4 19 11 N 44 0,3
15.07.2019 19:00:00 8,6 7,2 7 4 17 9 N 15 0,2
15.07.2019 18:00:00 8,8 6,6 7 4 18 10 NNW 29 0,0
15.07.2019 17:00:00 8,6 6,6 6 3 22 12 NW 50 0,0
15.07.2019 16:00:00 8,4 6,9 6 3 19 10 NNW 27 0,2
15.07.2019 15:00:00 8,2 6,2 7 4 22 12 NNW 11 0,1
15.07.2019 14:00:00 9,3 5,1 9 5 23 12 NW 50 0,0
15.07.2019 13:00:00 9,2 5,0 9 5 24 13 NW 50 0,0
15.07.2019 12:00:00 9,2 4,2 9 5 24 13 NW 50 0,0
15.07.2019 11:00:00 8,9 3,3 10 6 22 12 NNW 50 0,0
15.07.2019 10:00:00 8,9 3,7 10 6 24 13 NNW 50 0,0
15.07.2019 09:00:00 7,9 3,9 10 5 23 13 NW 50 0,0
15.07.2019 08:00:00 7,8 4,0 11 6 28 15 WNW 50 0,0
15.07.2019 07:00:00 6,6 4,1 13 7 27 15 WNW 50 0,0
15.07.2019 06:00:00 5,6 4,4 8 4 21 11 WNW 50 0,0
15.07.2019 05:00:00 5,3 4,9 5 3 14 8 WNW 50 0,0
15.07.2019 04:00:00 5,0 4,4 4 2 27 14 WNW 50 0,0
15.07.2019 03:00:00 5,2 4,9 6 3 16 8 W 13 0,1
15.07.2019 02:00:00 5,3 5,0 4 2 11 6 WNW 2,9 0,2
15.07.2019 01:00:00 5,4 4,8 2 1 16 9 W 5 0,1
15.07.2019 00:00:00 6,0 4,3 5 3 13 7 W 24 0,0
14.07.2019 23:00:00 6,3 4,1 5 3 19 10 W 50 0,0
14.07.2019 22:00:00 6,8 4,1 8 5 21 11 W 50 0,0
14.07.2019 21:00:00 7,7 4,5 7 4 24 13 NW 50 0,0
14.07.2019 20:00:00 8,4 4,8 10 5 - - WNW 50 0,0
14.07.2019 19:00:00 10,0 5,4 7 4 24 13 WNW 46 0,0
14.07.2019 18:00:00 9,9 5,5 8 4 29 15 NW 50 0,0
14.07.2019 17:00:00 10,4 5,6 12 7 28 15 NW 50 0,0
14.07.2019 16:00:00 11,4 6,1 12 6 27 15 NNW 42 0,0
14.07.2019 15:00:00 12,8 6,2 11 6 29 16 NW 45 0,0
14.07.2019 14:00:00 12,3 6,1 12 6 27 15 NNW 48 0,0
14.07.2019 13:00:00 12,5 5,9 9 5 23 12 NNW 45 0,0
14.07.2019 12:00:00 12,5 6,3 10 5 24 13 NW 43 0,0
14.07.2019 11:00:00 11,2 6,9 6 4 19 10 NW 50 0,0
14.07.2019 10:00:00 10,1 6,6 8 4 19 10 NW 45 0,0
14.07.2019 09:00:00 9,5 6,4 7 4 16 9 WNW 50 0,0
14.07.2019 08:00:00 8,7 6,1 6 3 16 9 NW 50 0,0
14.07.2019 07:00:00 8,8 6,1 5 3 19 10 WNW 50 0,0
14.07.2019 06:00:00 8,6 6,6 4 2 16 9 NW 50 0,0
14.07.2019 05:00:00 8,5 7,0 4 2 16 8 WNW 50 0,0
14.07.2019 04:00:00 8,6 7,2 5 3 17 9 WNW 50 0,0
14.07.2019 03:00:00 9,1 7,7 4 2 14 7 WNW 50 0,0
14.07.2019 02:00:00 9,4 8,2 6 3 16 9 NW 50 0,0
14.07.2019 01:00:00 9,7 8,8 5 3 14 8 WNW 50 0,0
14.07.2019 00:00:00 9,3 9,0 4 2 - - W 27 0,0
13.07.2019 23:00:00 8,7 8,1 5 3 13 7 WNW 21 0,0
13.07.2019 22:00:00 10,6 9,0 7 4 16 9 W 43 0,0
13.07.2019 21:00:00 12,8 9,6 8 4 - - WNW 50 0,0
13.07.2019 20:00:00 14,8 10,0 7 4 18 10 W 50 0,0
13.07.2019 19:00:00 15,9 10,2 7 4 29 16 W 50 0,0
13.07.2019 18:00:00 17,4 9,8 11 6 28 15 NW 49 0,0
13.07.2019 17:00:00 18,3 9,9 11 6 30 16 NNW 47 0,0
13.07.2019 16:00:00 20,4 9,6 11 6 21 11 WNW 37 0,0
13.07.2019 15:00:00 20,1 8,7 9 5 17 9 NW 41 0,0
13.07.2019 14:00:00 18,5 9,0 5 3 14 7 N 36 0,0
13.07.2019 13:00:00 17,8 11,4 5 3 14 8 SE 36 0,0
13.07.2019 12:00:00 15,3 10,9 6 4 12 7 SE 30 0,0
13.07.2019 11:00:00 13,4 11,1 5 3 10 5 ENE 27 0,0
13.07.2019 10:00:00 12,9 11,5 4 2 11 6 W 27 0,0
13.07.2019 09:00:00 11,9 11,0 4 2 7 4 W 15 0,0
13.07.2019 08:00:00 11,2 11,0 3 1 9 5 NNW 12 0,0
13.07.2019 07:00:00 10,6 10,6 3 2 8 4 NNE 4,5 0,0
13.07.2019 06:00:00 10,3 10,3 3 2 6 3 SSW 3,1 0,0
13.07.2019 05:00:00 9,7 9,7 1 1 9 5 W 1,0 0,0
13.07.2019 04:00:00 9,3 9,3 5 3 8 4 N 3,9 0,0
13.07.2019 03:00:00 9,2 9,1 2 1 3 2 W 6 0,0
13.07.2019 02:00:00 10,3 10,3 3 2 - - NNE 8 0,1
13.07.2019 01:00:00 10,4 10,2 3 1 6 3 W 6 0,0
13.07.2019 00:00:00 10,8 10,6 1 1 7 4 NNW 9 0,0
12.07.2019 23:00:00 11,1 10,8 3 2 5 3 NNW 10 0,0
12.07.2019 22:00:00 11,5 11,2 3 1 11 6 ENE 23 0,0
12.07.2019 21:00:00 11,6 11,1 7 4 26 14 W 24 5,6
12.07.2019 20:00:00 12,6 11,7 14 8 28 15 E 4,7 1,4
12.07.2019 19:00:00 16,7 11,0 8 5 19 10 SSW - 0,0
12.07.2019 18:00:00 15,9 11,3 8 4 19 11 SW 50 0,0
12.07.2019 17:00:00 16,4 12,4 7 4 21 12 WSW 46 0,0
12.07.2019 16:00:00 14,1 12,7 6 4 17 9 W 8 0,8
12.07.2019 15:00:00 16,9 9,8 4 2 19 10 SSW 48 0,0
12.07.2019 14:00:00 17,5 9,9 10 5 23 12 ENE 39 0,0
12.07.2019 13:00:00 15,7 10,0 11 6 21 11 ENE 45 0,0
12.07.2019 12:00:00 16,7 10,1 7 4 20 11 ENE 44 0,0
12.07.2019 11:00:00 16,3 9,9 5 3 14 8 E 46 0,0
12.07.2019 10:00:00 14,4 10,4 8 4 13 7 E 45 0,0
12.07.2019 09:00:00 14,5 10,3 4 2 10 5 E 38 0,0
12.07.2019 08:00:00 13,6 10,6 3 2 7 4 NE 33 0,0
12.07.2019 07:00:00 10,2 10,2 2 1 7 4 N 0,3 0,0
12.07.2019 06:00:00 9,8 9,8 2 1 4 2 NE 0,3 0,0
12.07.2019 05:00:00 9,1 9,1 3 1 - - WSW 7 0,0
12.07.2019 04:00:00 7,6 7,6 4 2 6 3 SW 0,4 0,0
12.07.2019 03:00:00 5,6 5,3 2 1 4 2 NNE 0,7 0,0
12.07.2019 02:00:00 6,6 6,2 3 2 7 4 NNE 10 0,0
12.07.2019 01:00:00 7,9 7,3 3 2 6 3 NW 11 0,0
12.07.2019 00:00:00 9,4 8,5 4 2 - - N 14 0,0
11.07.2019 23:00:00 12,4 10,5 4 2 9 5 W 43 0,0
11.07.2019 22:00:00 14,6 11,0 2 1 14 7 W 50 0,0
11.07.2019 21:00:00 14,7 9,7 6 4 15 8 W 49 0,0
11.07.2019 20:00:00 16,1 10,8 6 3 18 10 WSW 50 -
11.07.2019 19:00:00 17,3 8,7 7 4 24 13 S 50 -
11.07.2019 18:00:00 19,5 9,4 10 5 26 14 SSW 46 -
11.07.2019 17:00:00 - - - - - - - - -
11.07.2019 16:00:00 - - - - - - - - -
11.07.2019 15:00:00 20,1 8,4 4 2 22 12 S 40 0,0
11.07.2019 14:00:00 20,4 8,1 6 3 16 9 SSW 34 0,0
11.07.2019 13:00:00 18,7 7,8 6 3 13 7 ESE 42 0,0
11.07.2019 12:00:00 18,8 6,9 5 3 17 9 WSW 39 0,0
11.07.2019 11:00:00 17,2 8,3 5 3 12 7 SE 42 0,0
11.07.2019 10:00:00 17,4 9,6 6 3 18 10 SW 40 0,0
11.07.2019 09:00:00 14,9 8,6 3 1 11 6 E 46 0,0
11.07.2019 08:00:00 12,9 8,4 5 3 9 5 E 41 0,0
11.07.2019 07:00:00 11,1 9,8 2 1 4 2 NW 31 0,0
11.07.2019 06:00:00 9,1 8,8 3 2 - - WSW 10 0,0
11.07.2019 05:00:00 8,6 8,5 3 2 6 3 NNW 10 0,0
11.07.2019 04:00:00 8,2 8,1 5 3 9 5 WSW 8 0,0
11.07.2019 03:00:00 7,7 7,3 3 1 4 2 WSW 10 0,0
11.07.2019 02:00:00 8,7 8,1 1 1 4 2 W 11 0,0
11.07.2019 01:00:00 9,8 9,0 1 0 5 3 ENE 15 0,0
11.07.2019 00:00:00 10,8 9,4 3 2 4 2 ENE 39 0,0
10.07.2019 23:00:00 11,4 9,3 2 1 8 4 ENE 49 0,0
10.07.2019 22:00:00 14,9 8,8 5 3 11 6 S 50 0,0
10.07.2019 21:00:00 16,2 8,4 6 3 22 12 NW 50 0,0
10.07.2019 20:00:00 18,2 7,3 12 7 23 13 NW 50 0,0
10.07.2019 19:00:00 19,6 6,3 9 5 22 12 NW 50 0,0
10.07.2019 18:00:00 20,6 5,4 10 6 - - NW 46 0,0
10.07.2019 17:00:00 20,9 6,0 11 6 24 13 NNW 50 0,0
10.07.2019 16:00:00 21,0 6,1 7 4 22 12 N 36 0,0
10.07.2019 15:00:00 21,1 5,4 6 3 20 11 NNW 46 0,0
10.07.2019 14:00:00 21,1 5,0 6 3 17 9 NW 32 0,0
10.07.2019 13:00:00 20,9 4,4 8 5 16 9 NNW 38 0,0
10.07.2019 12:00:00 19,0 6,1 6 3 12 6 E 38 0,0
10.07.2019 11:00:00 18,2 6,1 5 3 14 8 SE 37 0,0
10.07.2019 10:00:00 16,6 7,3 5 3 10 6 E 32 0,0
10.07.2019 09:00:00 15,6 7,9 4 2 - - SE 38 0,0
10.07.2019 08:00:00 13,6 7,4 3 2 8 5 S 39 0,0
10.07.2019 07:00:00 10,1 8,2 4 2 6 4 ENE 50 0,0
10.07.2019 06:00:00 6,9 6,3 3 2 5 3 W 32 0,0
10.07.2019 05:00:00 7,1 5,9 4 2 5 3 NE 29 0,0
10.07.2019 04:00:00 6,0 5,7 4 2 6 3 W 24 0,0

tt = Température de l'air
td = dewpoint
ff = Vitesse du vent
fx = gusts
dd = Direction du vent
vv = visibility
rr = Quantités de précipitations

stations d'obs. à proximité